createdAt,value
2022-11-03T00:04:16.312Z,5.8
2022-11-03T00:09:16.575Z,5.8
2022-11-03T00:14:16.358Z,5.8
2022-11-03T00:19:16.426Z,5.8
2022-11-03T00:24:16.053Z,5.7
2022-11-03T00:29:16.121Z,5.7
2022-11-03T00:34:16.520Z,5.6
2022-11-03T00:39:16.597Z,5.6
2022-11-03T00:44:15.992Z,5.5
2022-11-03T00:49:16.189Z,5.5
2022-11-03T00:54:16.476Z,5.4
2022-11-03T00:59:16.764Z,5.4
2022-11-03T01:04:16.415Z,5.3
2022-11-03T01:09:16.761Z,5.3
2022-11-03T01:14:15.970Z,5.3
2022-11-03T01:19:16.119Z,5.3
2022-11-03T01:24:16.478Z,5.2
2022-11-03T01:29:16.660Z,5.2
2022-11-03T01:34:16.008Z,5.2
2022-11-03T01:39:16.113Z,5.2
2022-11-03T01:44:16.426Z,5.2
2022-11-03T01:49:16.766Z,5.2
2022-11-03T01:54:15.939Z,5.2
2022-11-03T01:59:16.369Z,5.2
2022-11-03T02:04:16.583Z,5.2
2022-11-03T02:09:16.759Z,5.2
2022-11-03T02:14:15.944Z,5.2
2022-11-03T02:19:16.098Z,5.2
2022-11-03T02:24:16.219Z,5.3
2022-11-03T02:29:16.322Z,5.3
2022-11-03T02:34:16.567Z,5.3
2022-11-03T02:39:16.828Z,5.3
2022-11-03T02:44:16.780Z,5.4
2022-11-03T02:49:15.993Z,5.4
2022-11-03T02:54:16.065Z,5.5
2022-11-03T02:59:16.023Z,5.5
2022-11-03T03:04:16.278Z,5.6
2022-11-03T03:09:16.094Z,5.6
2022-11-03T03:14:16.697Z,5.7
2022-11-03T03:19:16.435Z,5.7
2022-11-03T03:24:16.579Z,5.8
2022-11-03T03:29:16.037Z,5.8
2022-11-03T03:34:33.988Z,5.9
2022-11-03T03:39:16.508Z,5.9
2022-11-03T03:44:16.431Z,6
2022-11-03T03:49:16.652Z,6
2022-11-03T03:54:16.393Z,6.1
2022-11-03T03:59:16.669Z,6.1
2022-11-03T04:04:16.546Z,6.1
2022-11-03T04:09:16.768Z,6.1
2022-11-03T04:14:15.997Z,6.1
2022-11-03T04:19:16.409Z,6.1
2022-11-03T04:24:16.446Z,6.1
2022-11-03T04:29:16.717Z,6.1
2022-11-03T04:34:16.852Z,6.1
2022-11-03T04:39:16.952Z,6.1
2022-11-03T04:44:16.780Z,6.1
2022-11-03T04:49:16.845Z,6.1
2022-11-03T04:54:16.319Z,6
2022-11-03T04:59:16.463Z,6
2022-11-03T05:04:16.542Z,5.9
2022-11-03T05:09:16.131Z,5.9
2022-11-03T05:14:16.354Z,5.9
2022-11-03T05:19:16.460Z,5.9
2022-11-03T05:24:16.698Z,5.8
2022-11-03T05:29:16.548Z,5.8
2022-11-03T05:34:16.725Z,5.8
2022-11-03T05:39:16.244Z,5.8
2022-11-03T05:44:16.470Z,5.8
2022-11-03T05:49:16.766Z,5.8
2022-11-03T05:54:19.558Z,5.9
2022-11-03T05:59:16.084Z,5.9
2022-11-03T06:04:16.359Z,5.9
2022-11-03T06:09:16.745Z,5.9
2022-11-03T06:14:21.221Z,6.1
2022-11-03T06:19:35.352Z,6.1
2022-11-03T06:24:16.369Z,6.1
2022-11-03T06:29:17.058Z,6.1
2022-11-03T06:34:16.236Z,6.2
2022-11-03T06:39:16.666Z,6.2
2022-11-03T06:44:16.977Z,6.3
2022-11-03T06:49:16.042Z,6.3
2022-11-03T06:54:16.128Z,6.6
2022-11-03T06:59:16.380Z,6.6
2022-11-03T07:04:16.572Z,6.7
2022-11-03T07:09:17.001Z,6.7
2022-11-03T07:14:16.383Z,6.8
2022-11-03T07:19:16.656Z,6.8
2022-11-03T07:24:16.837Z,7
2022-11-03T07:29:16.066Z,7
2022-11-03T07:34:16.198Z,7.2
2022-11-03T07:39:16.487Z,7.2
2022-11-03T07:44:16.653Z,7.5
2022-11-03T07:49:17.057Z,7.5
2022-11-03T07:54:16.283Z,7.7
2022-11-03T07:59:16.631Z,7.7
2022-11-03T08:04:16.208Z,7.9
2022-11-03T08:09:16.451Z,7.9
2022-11-03T08:14:16.634Z,8.2
2022-11-03T08:19:16.863Z,8.2
2022-11-03T08:24:16.980Z,8.4
2022-11-03T08:29:16.089Z,8.4
2022-11-03T08:34:16.573Z,8.6
2022-11-03T08:39:17.013Z,8.6
2022-11-03T08:44:16.192Z,8.8
2022-11-03T08:49:16.559Z,8.8
2022-11-03T08:54:16.505Z,9.1
2022-11-03T08:59:16.488Z,9.1
2022-11-03T09:04:16.939Z,9.3
2022-11-03T09:14:16.588Z,9.5
2022-11-03T09:19:16.906Z,9.5
2022-11-03T09:24:16.342Z,9.8
2022-11-03T09:29:17.198Z,9.8
2022-11-03T09:34:16.538Z,10
2022-11-03T09:39:17.084Z,10
2022-11-03T09:44:16.664Z,10.2
2022-11-03T09:49:16.982Z,10.2
2022-11-03T09:54:16.266Z,10.4
2022-11-03T09:59:16.384Z,10.4
2022-11-03T10:04:16.841Z,10.6
2022-11-03T10:09:17.233Z,10.6
2022-11-03T10:14:16.489Z,10.8
2022-11-03T10:19:16.936Z,10.8
2022-11-03T10:24:16.417Z,11.2
2022-11-03T10:29:16.715Z,11.2
2022-11-03T10:34:17.058Z,11.4
2022-11-03T10:39:16.309Z,11.4
2022-11-03T10:44:17.036Z,11.7
2022-11-03T10:49:17.168Z,11.7
2022-11-03T10:54:16.939Z,12.7
2022-11-03T10:59:17.204Z,12.7
2022-11-03T11:04:16.780Z,13.1
2022-11-03T11:09:16.268Z,13.1
2022-11-03T11:14:16.682Z,13.2
2022-11-03T11:19:17.292Z,13.2
2022-11-03T11:24:16.508Z,13.3
2022-11-03T11:29:16.838Z,13.3
2022-11-03T11:34:17.174Z,13.4
2022-11-03T11:39:17.056Z,13.4
2022-11-03T11:44:16.285Z,13.4
2022-11-03T11:49:16.646Z,13.4
2022-11-03T11:54:18.195Z,13.6
2022-11-03T11:59:22.998Z,13.6
2022-11-03T12:04:16.462Z,14
2022-11-03T12:09:17.325Z,14
2022-11-03T12:14:17.091Z,14.1
2022-11-03T12:19:16.475Z,14.1
2022-11-03T12:24:16.686Z,14.1
2022-11-03T12:29:16.844Z,14.1
2022-11-03T12:34:17.140Z,14.2
2022-11-03T12:39:16.854Z,14.2
2022-11-03T12:44:17.165Z,14.2
2022-11-03T12:49:16.744Z,14.2
2022-11-03T12:54:17.029Z,14.2
2022-11-03T12:59:16.292Z,14.2
2022-11-03T13:04:17.225Z,14.2
2022-11-03T13:09:16.948Z,14.2
2022-11-03T13:14:16.681Z,14.2
2022-11-03T13:19:17.314Z,14.2
2022-11-03T13:24:16.538Z,14.1
2022-11-03T13:29:16.400Z,14.1
2022-11-03T13:34:17.041Z,13.9
2022-11-03T13:39:16.470Z,13.9
2022-11-03T13:44:17.220Z,13.8
2022-11-03T13:49:59.866Z,13.8
2022-11-03T14:04:43.837Z,13.6
2022-11-03T14:09:16.434Z,13.6
2022-11-03T14:14:16.546Z,13.3
2022-11-03T14:19:17.033Z,13.3
2022-11-03T14:24:17.255Z,13.2
2022-11-03T14:29:16.435Z,13.2
2022-11-03T14:34:16.843Z,13.1
2022-11-03T14:39:16.398Z,13.1
2022-11-03T14:44:16.767Z,12.9
2022-11-03T14:49:17.265Z,12.9
2022-11-03T14:54:16.728Z,12.7
2022-11-03T14:59:16.619Z,12.7
2022-11-03T15:04:17.018Z,12.6
2022-11-03T15:09:16.620Z,12.6
2022-11-03T15:14:17.361Z,12.4
2022-11-03T15:19:17.624Z,12.4
2022-11-03T15:29:16.829Z,12.3
2022-11-03T15:34:17.053Z,12.2
2022-11-03T15:39:17.132Z,12.2
2022-11-03T15:44:17.103Z,12
2022-11-03T15:49:17.363Z,12
2022-11-03T15:54:16.666Z,11.9
2022-11-03T15:59:16.896Z,11.9
2022-11-03T16:04:16.800Z,11.7
2022-11-03T16:09:17.318Z,11.7
2022-11-03T16:14:16.506Z,11.6
2022-11-03T16:19:16.868Z,11.6
2022-11-03T16:24:17.223Z,11.4
2022-11-03T16:29:16.412Z,11.4
2022-11-03T16:34:16.748Z,11.4
2022-11-03T16:39:17.387Z,11.4
2022-11-03T16:44:16.654Z,11.3
2022-11-03T16:49:17.056Z,11.3
2022-11-03T16:54:17.116Z,11.3
2022-11-03T16:59:17.306Z,11.3
2022-11-03T17:04:16.655Z,11.2
2022-11-03T17:09:17.396Z,11.2
2022-11-03T17:14:16.590Z,11.1
2022-11-03T17:19:17.150Z,11.1
2022-11-03T17:24:16.723Z,11.1
2022-11-03T17:29:16.908Z,11.1
2022-11-03T17:34:17.128Z,11
2022-11-03T17:39:16.593Z,11
2022-11-03T17:44:17.211Z,10.9
2022-11-03T17:49:16.583Z,10.9
2022-11-03T17:54:17.214Z,10.8
2022-11-03T17:59:17.456Z,10.8
2022-11-03T18:04:16.707Z,10.7
2022-11-03T18:09:16.904Z,10.7
2022-11-03T18:14:17.269Z,10.7
2022-11-03T18:19:16.559Z,10.7
2022-11-03T18:24:16.692Z,10.6
2022-11-03T18:29:16.907Z,10.6
2022-11-03T18:34:17.061Z,10.6
2022-11-03T18:39:16.966Z,10.6
2022-11-03T18:44:17.167Z,10.6
2022-11-03T18:49:17.509Z,10.6
2022-11-03T18:54:16.875Z,10.5
2022-11-03T18:59:17.143Z,10.5
2022-11-03T19:04:17.238Z,10.4
2022-11-03T19:09:16.656Z,10.4
2022-11-03T19:14:16.909Z,10.3
2022-11-03T19:19:17.206Z,10.3
2022-11-03T19:24:16.825Z,10.3
2022-11-03T19:29:17.050Z,10.3
2022-11-03T19:34:17.299Z,10.2
2022-11-03T19:39:16.809Z,10.2
2022-11-03T19:44:16.905Z,10.2
2022-11-03T19:49:17.085Z,10.2
2022-11-03T19:54:17.163Z,10.1
2022-11-03T19:59:17.439Z,10.1
2022-11-03T20:04:16.631Z,10.1
2022-11-03T20:09:16.898Z,10.1
2022-11-03T20:14:17.319Z,10
2022-11-03T20:19:16.551Z,10
2022-11-03T20:24:16.606Z,10
2022-11-03T20:29:16.905Z,10
2022-11-03T20:34:17.197Z,9.9
2022-11-03T20:39:16.747Z,9.9
2022-11-03T20:44:17.174Z,9.9
2022-11-03T20:49:17.433Z,9.9
2022-11-03T20:54:16.969Z,9.8
2022-11-03T20:59:17.195Z,9.8
2022-11-03T21:04:17.421Z,9.8
2022-11-03T21:09:17.348Z,9.8
2022-11-03T21:14:17.213Z,9.8
2022-11-03T21:19:17.559Z,9.8
2022-11-03T21:24:16.997Z,9.8
2022-11-03T21:29:32.936Z,9.8
2022-11-03T21:34:17.095Z,9.7
2022-11-03T21:39:17.064Z,9.7
2022-11-03T21:44:16.948Z,9.7
2022-11-03T21:49:17.082Z,9.7
2022-11-03T21:54:17.183Z,9.7
2022-11-03T21:59:17.009Z,9.7
2022-11-03T22:04:17.350Z,9.7
2022-11-03T22:09:16.908Z,9.7
2022-11-03T22:14:17.293Z,9.7
2022-11-03T22:19:17.324Z,9.7
2022-11-03T22:24:16.722Z,9.7
2022-11-03T22:29:16.896Z,9.7
2022-11-03T22:34:17.271Z,9.7
2022-11-03T22:39:16.641Z,9.7
2022-11-03T22:44:16.799Z,9.7
2022-11-03T22:49:16.931Z,9.7
2022-11-03T22:54:17.088Z,9.8
2022-11-03T22:59:17.117Z,9.8
2022-11-03T23:04:17.595Z,9.8
2022-11-03T23:09:17.290Z,9.8
2022-11-03T23:14:16.794Z,9.8
2022-11-03T23:19:16.708Z,9.8
2022-11-03T23:24:16.839Z,9.8
2022-11-03T23:29:16.911Z,9.8
2022-11-03T23:34:17.073Z,9.8
2022-11-03T23:39:17.297Z,9.8
2022-11-03T23:44:17.468Z,9.8
2022-11-03T23:49:17.641Z,9.8
2022-11-03T23:54:16.946Z,9.8
2022-11-03T23:59:17.029Z,9.8
